createdAt,value
2023-04-22T00:02:27.711Z,30.05
2023-04-22T00:04:54.874Z,28.23
2023-04-22T00:07:22.419Z,32.28
2023-04-22T00:09:49.902Z,35.00
2023-04-22T00:12:16.804Z,33.47
2023-04-22T00:14:44.057Z,35.47
2023-04-22T00:17:11.282Z,33.22
2023-04-22T00:19:38.755Z,33.33
2023-04-22T00:22:06.018Z,34.67
2023-04-22T00:24:33.100Z,34.38
2023-04-22T00:27:00.165Z,33.08
2023-04-22T00:29:27.276Z,35.10
2023-04-22T00:31:54.317Z,34.25
2023-04-22T00:34:21.384Z,34.05
2023-04-22T00:36:48.773Z,34.40
2023-04-22T00:39:16.041Z,33.20
2023-04-22T00:41:43.771Z,32.25
2023-04-22T00:44:11.850Z,33.70
2023-04-22T00:46:40.113Z,34.17
2023-04-22T00:49:08.548Z,33.42
2023-04-22T00:51:35.815Z,30.35
2023-04-22T00:54:03.838Z,31.17
2023-04-22T00:56:34.206Z,32.92
2023-04-22T00:59:01.134Z,29.35
2023-04-22T01:01:29.403Z,31.58
2023-04-22T01:03:57.485Z,30.98
2023-04-22T01:06:24.912Z,30.38
2023-04-22T01:08:52.221Z,29.48
2023-04-22T01:11:19.279Z,31.02
2023-04-22T01:13:46.691Z,29.88
2023-04-22T01:16:13.962Z,30.25
2023-04-22T01:18:40.942Z,30.35
2023-04-22T01:21:08.301Z,29.10
2023-04-22T01:23:35.271Z,30.67
2023-04-22T01:26:02.384Z,29.83
2023-04-22T01:28:29.972Z,27.42
2023-04-22T01:30:57.053Z,27.63
2023-04-22T01:33:24.417Z,30.55
2023-04-22T01:35:51.489Z,29.10
2023-04-22T01:38:18.513Z,28.50
2023-04-22T01:40:45.397Z,27.25
2023-04-22T01:43:12.352Z,28.98
2023-04-22T01:45:39.267Z,31.40
2023-04-22T01:48:09.415Z,27.42
2023-04-22T01:50:36.376Z,29.08
2023-04-22T01:53:04.173Z,29.40
2023-04-22T01:55:31.592Z,29.50
2023-04-22T01:57:58.543Z,28.10
2023-04-22T02:00:25.575Z,30.27
2023-04-22T02:02:52.532Z,27.77
2023-04-22T02:05:19.646Z,31.10
2023-04-22T02:07:46.703Z,27.73
2023-04-22T02:10:13.672Z,29.13
2023-04-22T02:12:40.632Z,28.98
2023-04-22T02:15:08.388Z,31.30
2023-04-22T02:17:36.102Z,31.88
2023-04-22T02:20:05.322Z,29.70
2023-04-22T02:22:33.473Z,29.55
2023-04-22T02:25:02.020Z,29.77
2023-04-22T02:27:28.995Z,28.02
2023-04-22T02:29:55.999Z,32.63
2023-04-22T02:32:23.159Z,27.73
2023-04-22T02:34:50.058Z,30.25
2023-04-22T02:37:17.384Z,31.27
2023-04-22T02:39:44.254Z,29.60
2023-04-22T02:42:11.295Z,30.77
2023-04-22T02:44:38.177Z,29.13
2023-04-22T02:47:07.308Z,30.95
2023-04-22T02:49:34.230Z,32.70
2023-04-22T02:52:01.099Z,30.77
2023-04-22T02:54:28.048Z,31.42
2023-04-22T02:56:55.333Z,34.30
2023-04-22T02:59:22.724Z,34.40
2023-04-22T03:01:49.980Z,34.78
2023-04-22T03:04:17.010Z,31.50
2023-04-22T03:06:44.010Z,33.72
2023-04-22T03:09:11.296Z,34.95
2023-04-22T03:11:38.177Z,34.45
2023-04-22T03:14:05.040Z,30.58
2023-04-22T03:16:33.685Z,33.40
2023-04-22T03:19:00.672Z,30.15
2023-04-22T03:21:28.751Z,35.47
2023-04-22T03:23:55.689Z,32.95
2023-04-22T03:26:22.602Z,33.47
2023-04-22T03:28:49.535Z,35.08
2023-04-22T03:31:16.612Z,36.15
2023-04-22T03:33:43.826Z,32.55
2023-04-22T03:36:10.718Z,36.05
2023-04-22T03:38:37.576Z,33.13
2023-04-22T03:41:04.518Z,35.78
2023-04-22T03:43:31.433Z,34.53
2023-04-22T03:46:00.265Z,34.03
2023-04-22T03:48:29.280Z,34.20
2023-04-22T03:50:56.313Z,33.38
2023-04-22T03:53:23.440Z,31.55
2023-04-22T03:55:50.593Z,35.67
2023-04-22T03:58:17.509Z,37.30
2023-04-22T04:00:44.618Z,36.33
2023-04-22T04:03:12.115Z,33.33
2023-04-22T04:05:39.311Z,33.78
2023-04-22T04:08:06.900Z,35.10
2023-04-22T04:10:34.067Z,33.88
2023-04-22T04:13:00.936Z,35.33
2023-04-22T04:15:28.056Z,35.67
2023-04-22T04:17:56.974Z,34.70
2023-04-22T04:20:24.274Z,33.10
2023-04-22T04:22:51.162Z,35.20
2023-04-22T04:25:18.752Z,37.60
2023-04-22T04:27:45.801Z,38.15
2023-04-22T04:30:13.288Z,37.42
2023-04-22T04:32:40.766Z,36.75
2023-04-22T04:35:08.373Z,31.55
2023-04-22T04:37:35.257Z,34.55
2023-04-22T04:40:02.563Z,36.55
2023-04-22T04:42:30.737Z,40.28
2023-04-22T04:44:58.629Z,38.67
2023-04-22T04:47:25.980Z,35.80
2023-04-22T04:49:54.620Z,33.17
2023-04-22T04:52:21.473Z,38.25
2023-04-22T04:54:48.507Z,36.60
2023-04-22T04:57:15.362Z,37.30
2023-04-22T04:59:42.364Z,37.95
2023-04-22T05:02:09.528Z,37.90
2023-04-22T05:04:36.759Z,37.50
2023-04-22T05:07:04.401Z,37.78
2023-04-22T05:09:37.525Z,38.78
2023-04-22T05:12:05.252Z,36.92
2023-04-22T05:14:32.655Z,31.95
2023-04-22T05:16:59.918Z,34.95
2023-04-22T05:19:26.935Z,37.45
2023-04-22T05:21:53.774Z,36.50
2023-04-22T05:24:21.635Z,41.10
2023-04-22T05:26:48.875Z,37.95
2023-04-22T05:29:15.910Z,39.83
2023-04-22T05:31:43.055Z,38.72
2023-04-22T05:34:10.046Z,37.60
2023-04-22T05:36:36.942Z,41.45
2023-04-22T05:39:04.422Z,41.33
2023-04-22T05:41:31.263Z,35.03
2023-04-22T05:43:58.240Z,35.67
2023-04-22T05:46:25.350Z,38.38
2023-04-22T05:48:52.411Z,38.38
2023-04-22T05:51:19.685Z,38.78
2023-04-22T05:53:46.684Z,39.55
2023-04-22T05:56:13.655Z,39.03
2023-04-22T05:58:40.512Z,35.95
2023-04-22T06:01:07.416Z,35.00
2023-04-22T06:03:34.578Z,34.22
2023-04-22T06:06:01.792Z,33.30
2023-04-22T06:08:31.993Z,34.40
2023-04-22T06:10:58.946Z,32.47
2023-04-22T06:13:25.894Z,35.00
2023-04-22T06:15:52.877Z,35.22
2023-04-22T06:18:19.871Z,35.35
2023-04-22T06:20:46.944Z,37.58
2023-04-22T06:23:13.939Z,34.78
2023-04-22T06:25:40.832Z,36.83
2023-04-22T06:28:08.032Z,36.30
2023-04-22T06:30:34.998Z,38.10
2023-04-22T06:33:02.114Z,35.35
2023-04-22T06:35:29.074Z,33.05
2023-04-22T06:37:56.031Z,34.65
2023-04-22T06:40:23.099Z,34.97
2023-04-22T06:42:49.980Z,34.65
2023-04-22T06:45:17.084Z,32.13
2023-04-22T06:47:44.379Z,34.08
2023-04-22T06:50:11.743Z,30.08
2023-04-22T06:52:38.855Z,31.67
2023-04-22T06:55:06.646Z,36.03
2023-04-22T06:57:33.594Z,32.35
2023-04-22T07:00:00.708Z,32.03
2023-04-22T07:02:27.815Z,31.50
2023-04-22T07:04:54.910Z,33.15
2023-04-22T07:07:21.861Z,29.63
2023-04-22T07:09:48.793Z,28.55
2023-04-22T07:12:16.325Z,30.02
2023-04-22T07:14:45.052Z,31.90
2023-04-22T07:17:12.946Z,31.80
2023-04-22T07:19:40.097Z,32.90
2023-04-22T07:22:07.324Z,32.25
2023-04-22T07:24:34.416Z,33.13
2023-04-22T07:27:02.908Z,35.80
2023-04-22T07:29:29.856Z,35.13
2023-04-22T07:31:56.795Z,34.22
2023-04-22T07:34:24.251Z,36.53
2023-04-22T07:36:54.452Z,33.97
2023-04-22T07:39:22.746Z,38.55
2023-04-22T07:41:49.772Z,36.47
2023-04-22T07:44:21.659Z,35.17
2023-04-22T07:46:50.425Z,35.28
2023-04-22T07:49:17.562Z,38.65
2023-04-22T07:51:45.626Z,36.22
2023-04-22T07:54:12.619Z,36.47
2023-04-22T07:56:39.545Z,36.70
2023-04-22T07:59:06.660Z,37.45
2023-04-22T08:01:33.515Z,42.53
2023-04-22T08:04:00.945Z,38.72
2023-04-22T08:06:28.353Z,40.40
2023-04-22T08:08:55.389Z,40.13
2023-04-22T08:11:22.349Z,40.55
2023-04-22T08:13:49.469Z,43.15
2023-04-22T08:16:17.159Z,42.97
2023-04-22T08:18:44.034Z,40.95
2023-04-22T08:21:11.246Z,38.47
2023-04-22T08:23:38.728Z,39.25
2023-04-22T08:26:05.757Z,38.05
2023-04-22T08:28:32.840Z,36.30
2023-04-22T08:30:59.741Z,36.88
2023-04-22T08:33:27.393Z,39.33
2023-04-22T08:35:54.458Z,39.58
2023-04-22T08:38:21.343Z,40.60
2023-04-22T08:40:48.328Z,38.55
2023-04-22T08:43:15.427Z,39.50
2023-04-22T08:45:42.687Z,38.97
2023-04-22T08:48:10.202Z,37.83
2023-04-22T08:50:40.081Z,38.97
2023-04-22T08:53:07.185Z,36.33
2023-04-22T08:55:36.580Z,38.40
2023-04-22T08:58:06.371Z,36.70
2023-04-22T09:00:34.873Z,38.90
2023-04-22T09:03:06.460Z,37.10
2023-04-22T09:05:34.620Z,39.13
2023-04-22T09:08:03.290Z,38.95
2023-04-22T09:10:33.523Z,36.83
2023-04-22T09:13:04.403Z,34.67
2023-04-22T09:15:31.409Z,35.00
2023-04-22T09:17:58.925Z,35.22
2023-04-22T09:20:28.619Z,34.70
2023-04-22T09:22:57.761Z,30.15
2023-04-22T09:25:27.819Z,34.08
2023-04-22T09:27:59.629Z,32.83
2023-04-22T09:30:34.978Z,32.25
2023-04-22T09:33:05.316Z,32.58
2023-04-22T09:35:40.776Z,33.53
2023-04-22T09:38:11.803Z,32.88
2023-04-22T09:40:43.510Z,31.92
2023-04-22T09:43:11.891Z,33.50
2023-04-22T09:45:42.410Z,31.73
2023-04-22T09:48:12.166Z,32.10
2023-04-22T09:50:42.217Z,32.58
2023-04-22T09:53:12.732Z,32.25
2023-04-22T09:55:53.837Z,33.13
2023-04-22T09:58:27.569Z,32.00
2023-04-22T10:00:58.084Z,32.38
2023-04-22T10:03:25.396Z,32.63
2023-04-22T10:05:52.727Z,28.42
2023-04-22T10:08:19.813Z,27.77
2023-04-22T10:10:47.040Z,28.50
2023-04-22T10:13:14.322Z,28.30
2023-04-22T10:15:43.381Z,25.60
2023-04-22T10:18:19.398Z,25.77
2023-04-22T10:20:47.884Z,26.00
2023-04-22T10:23:23.786Z,23.63
2023-04-22T10:25:56.042Z,22.75
2023-04-22T10:28:26.002Z,21.98
2023-04-22T10:30:53.772Z,24.23
2023-04-22T10:33:31.772Z,21.13
2023-04-22T10:36:20.365Z,21.45
2023-04-22T10:38:50.312Z,18.58
2023-04-22T10:41:23.635Z,18.08
2023-04-22T10:44:06.663Z,19.25
2023-04-22T10:46:44.487Z,17.52
2023-04-22T10:49:13.507Z,16.25
2023-04-22T10:51:54.785Z,15.10
2023-04-22T10:54:31.066Z,13.75
2023-04-22T10:57:12.913Z,13.40
2023-04-22T10:59:52.773Z,12.38
2023-04-22T11:02:21.407Z,13.63
2023-04-22T11:04:49.490Z,13.63
2023-04-22T11:07:20.922Z,12.52
2023-04-22T11:09:53.065Z,11.38
2023-04-22T11:12:44.125Z,12.20
2023-04-22T11:15:14.108Z,12.73
2023-04-22T11:17:47.901Z,13.68
2023-04-22T11:20:19.224Z,12.27
2023-04-22T11:22:48.816Z,11.95
2023-04-22T11:25:16.299Z,11.13
2023-04-22T11:27:44.591Z,12.52
2023-04-22T11:30:17.763Z,11.43
2023-04-22T11:33:00.109Z,12.30
2023-04-22T11:35:33.424Z,11.68
2023-04-22T11:38:04.471Z,10.60
2023-04-22T11:40:35.801Z,9.10
2023-04-22T11:43:07.439Z,9.85
2023-04-22T11:45:37.033Z,9.00
2023-04-22T11:48:07.187Z,9.65
2023-04-22T11:50:40.763Z,8.88
2023-04-22T11:53:21.402Z,9.43
2023-04-22T11:55:51.616Z,10.00
2023-04-22T11:58:25.102Z,10.82
2023-04-22T12:00:54.463Z,9.63
2023-04-22T12:03:27.629Z,9.15
2023-04-22T12:06:04.735Z,9.13
2023-04-22T12:08:35.749Z,8.43
2023-04-22T12:11:08.191Z,10.13
2023-04-22T12:13:46.589Z,10.38
2023-04-22T12:16:19.157Z,9.70
2023-04-22T12:18:56.665Z,9.80
2023-04-22T12:21:26.277Z,8.85
2023-04-22T12:24:06.251Z,8.85
2023-04-22T12:26:33.170Z,8.43
2023-04-22T12:29:01.460Z,9.07
2023-04-22T12:31:28.910Z,9.52
2023-04-22T12:33:56.322Z,9.00
2023-04-22T12:36:23.883Z,8.48
2023-04-22T12:38:51.556Z,8.70
2023-04-22T12:41:18.868Z,8.10
2023-04-22T12:43:46.233Z,8.50
2023-04-22T12:46:13.363Z,8.27
2023-04-22T12:48:40.284Z,8.23
2023-04-22T12:51:07.425Z,7.50
2023-04-22T12:53:35.117Z,6.90
2023-04-22T12:56:02.522Z,6.80
2023-04-22T12:58:29.459Z,7.60
2023-04-22T13:00:56.492Z,7.13
2023-04-22T13:03:23.728Z,6.70
2023-04-22T13:05:51.202Z,5.72
2023-04-22T13:08:18.716Z,5.88
2023-04-22T13:10:45.762Z,5.60
2023-04-22T13:15:42.434Z,6.57
2023-04-22T13:18:09.504Z,7.20
2023-04-22T13:20:36.980Z,7.13
2023-04-22T13:23:05.031Z,7.50
2023-04-22T13:25:32.296Z,7.32
2023-04-22T13:27:59.185Z,8.63
2023-04-22T13:30:26.572Z,8.48
2023-04-22T13:32:53.603Z,8.93
2023-04-22T13:35:20.984Z,8.73
2023-04-22T13:37:47.847Z,9.00
2023-04-22T13:40:15.049Z,8.75
2023-04-22T13:42:43.079Z,9.25
2023-04-22T13:45:10.431Z,8.23
2023-04-22T13:47:37.352Z,7.22
2023-04-22T13:50:06.247Z,7.50
2023-04-22T13:52:34.283Z,8.05
2023-04-22T13:55:03.350Z,7.72
2023-04-22T13:57:30.838Z,6.95
2023-04-22T13:59:57.863Z,6.68
2023-04-22T14:02:25.160Z,5.90
2023-04-22T14:04:52.415Z,4.80
2023-04-22T14:07:21.770Z,4.60
2023-04-22T14:09:48.762Z,4.53
2023-04-22T14:12:15.895Z,4.88
2023-04-22T14:14:42.832Z,4.25
2023-04-22T14:17:09.863Z,4.10
2023-04-22T14:19:39.669Z,4.20
2023-04-22T14:22:10.953Z,4.50
2023-04-22T14:24:37.887Z,5.15
2023-04-22T14:27:05.420Z,4.78
2023-04-22T14:29:32.523Z,4.40
2023-04-22T14:31:59.712Z,5.25
2023-04-22T14:34:27.560Z,5.43
2023-04-22T14:36:54.640Z,5.43
2023-04-22T14:39:21.778Z,4.95
2023-04-22T14:41:49.114Z,4.85
2023-04-22T14:44:16.332Z,4.82
2023-04-22T14:46:43.305Z,5.60
2023-04-22T14:49:10.207Z,5.68
2023-04-22T14:51:37.401Z,4.93
2023-04-22T14:54:04.710Z,5.45
2023-04-22T14:56:31.679Z,5.30
2023-04-22T14:58:58.784Z,5.50
2023-04-22T15:01:25.982Z,5.72
2023-04-22T15:03:53.044Z,5.60
2023-04-22T15:06:20.602Z,5.80
2023-04-22T15:08:47.590Z,6.05
2023-04-22T15:11:14.727Z,6.00
2023-04-22T15:13:41.674Z,6.00
2023-04-22T15:16:08.677Z,6.25
2023-04-22T15:18:36.279Z,5.72
2023-04-22T15:21:05.976Z,6.38
2023-04-22T15:23:32.847Z,6.82
2023-04-22T15:25:59.770Z,6.53
2023-04-22T15:28:26.789Z,6.93
2023-04-22T15:30:53.915Z,6.80
2023-04-22T15:33:20.860Z,7.05
2023-04-22T15:35:50.253Z,6.43
2023-04-22T15:38:17.946Z,7.47
2023-04-22T15:40:45.408Z,7.63
2023-04-22T15:43:12.371Z,7.35
2023-04-22T15:45:39.278Z,7.10
2023-04-22T15:48:06.432Z,7.30
2023-04-22T15:50:33.422Z,7.07
2023-04-22T15:53:00.473Z,6.68
2023-04-22T15:55:27.360Z,6.82
2023-04-22T15:57:54.428Z,7.32
2023-04-22T16:00:21.476Z,7.22
2023-04-22T16:02:55.706Z,6.45
2023-04-22T16:05:25.216Z,7.80
2023-04-22T16:07:56.096Z,6.43
2023-04-22T16:10:23.487Z,6.47
2023-04-22T16:12:51.106Z,7.35
2023-04-22T16:15:18.240Z,7.20
2023-04-22T16:17:45.353Z,7.20
2023-04-22T16:20:12.503Z,6.45
2023-04-22T16:22:39.455Z,7.40
2023-04-22T16:25:07.460Z,6.30
2023-04-22T16:27:34.694Z,8.20
2023-04-22T16:30:02.152Z,7.72
2023-04-22T16:32:29.050Z,7.70
2023-04-22T16:34:56.266Z,7.30
2023-04-22T16:37:23.180Z,6.75
2023-04-22T16:39:50.438Z,8.05
2023-04-22T16:42:17.598Z,7.93
2023-04-22T16:44:44.607Z,7.82
2023-04-22T16:47:11.661Z,8.18
2023-04-22T16:49:39.131Z,8.30
2023-04-22T16:52:06.385Z,7.88
2023-04-22T16:54:34.071Z,8.13
2023-04-22T16:57:01.709Z,8.25
2023-04-22T16:59:29.956Z,9.30
2023-04-22T17:01:57.513Z,9.82
2023-04-22T17:04:24.523Z,8.40
2023-04-22T17:06:51.734Z,8.55
2023-04-22T17:09:18.738Z,7.63
2023-04-22T17:11:45.801Z,9.70
2023-04-22T17:14:12.688Z,9.50
2023-04-22T17:16:39.586Z,9.45
2023-04-22T17:19:06.857Z,8.65
2023-04-22T17:21:36.923Z,10.15
2023-04-22T17:24:05.967Z,9.25
2023-04-22T17:26:33.704Z,9.35
2023-04-22T17:29:00.707Z,8.93
2023-04-22T17:31:27.786Z,7.60
2023-04-22T17:33:55.083Z,8.55
2023-04-22T17:36:21.973Z,8.55
2023-04-22T17:38:48.849Z,8.77
2023-04-22T17:41:15.834Z,8.60
2023-04-22T17:43:42.728Z,7.93
2023-04-22T17:46:09.596Z,8.77
2023-04-22T17:48:37.186Z,8.48
2023-04-22T17:51:07.762Z,8.32
2023-04-22T17:53:34.740Z,8.75
2023-04-22T17:56:04.894Z,9.10
2023-04-22T17:58:32.013Z,8.63
2023-04-22T18:00:58.918Z,10.18
2023-04-22T18:03:26.504Z,10.00
2023-04-22T18:05:53.489Z,8.30
2023-04-22T18:08:20.556Z,9.10
2023-04-22T18:10:47.466Z,10.15
2023-04-22T18:13:14.449Z,8.80
2023-04-22T18:15:41.467Z,8.30
2023-04-22T18:18:08.354Z,9.23
2023-04-22T18:20:35.404Z,9.80
2023-04-22T18:23:02.376Z,9.57
2023-04-22T18:25:29.350Z,10.60
2023-04-22T18:27:56.297Z,10.10
2023-04-22T18:30:24.601Z,9.68
2023-04-22T18:32:52.240Z,10.68
2023-04-22T18:35:20.384Z,8.90
2023-04-22T18:37:47.641Z,10.45
2023-04-22T18:40:14.675Z,10.98
2023-04-22T18:42:45.020Z,10.73
2023-04-22T18:45:12.660Z,11.25
2023-04-22T18:47:39.816Z,8.60
2023-04-22T18:50:07.928Z,10.95
2023-04-22T18:52:34.994Z,11.48
2023-04-22T18:55:02.273Z,10.80
2023-04-22T18:57:29.579Z,10.23
2023-04-22T18:59:56.522Z,12.07
2023-04-22T19:02:23.879Z,11.20
2023-04-22T19:04:51.878Z,11.48
2023-04-22T19:07:18.830Z,13.75
2023-04-22T19:09:45.750Z,13.20
2023-04-22T19:12:15.007Z,14.13
2023-04-22T19:14:42.606Z,13.23
2023-04-22T19:17:09.950Z,12.32
2023-04-22T19:19:36.949Z,11.10
2023-04-22T19:22:03.855Z,14.32
2023-04-22T19:24:33.497Z,15.55
2023-04-22T19:27:07.179Z,14.02
2023-04-22T19:29:34.568Z,14.27
2023-04-22T19:32:02.085Z,13.65
2023-04-22T19:34:29.153Z,13.23
2023-04-22T19:36:56.261Z,14.50
2023-04-22T19:39:23.398Z,13.45
2023-04-22T19:41:51.574Z,14.73
2023-04-22T19:44:18.679Z,13.70
2023-04-22T19:46:45.616Z,16.13
2023-04-22T19:49:13.140Z,16.05
2023-04-22T19:51:41.245Z,15.77
2023-04-22T19:54:10.999Z,16.90
2023-04-22T19:56:38.688Z,20.73
2023-04-22T19:59:07.035Z,17.38
2023-04-22T20:01:35.152Z,15.30
2023-04-22T20:04:04.270Z,16.30
2023-04-22T20:06:33.937Z,19.30
2023-04-22T20:09:01.856Z,18.05
2023-04-22T20:11:29.725Z,21.33
2023-04-22T20:13:57.008Z,23.25
2023-04-22T20:16:25.623Z,19.63
2023-04-22T20:18:52.908Z,17.10
2023-04-22T20:21:20.330Z,21.13
2023-04-22T20:23:48.201Z,20.13
2023-04-22T20:26:20.173Z,23.17
2023-04-22T20:28:54.658Z,21.48
2023-04-22T20:31:23.780Z,22.25
2023-04-22T20:33:51.867Z,21.08
2023-04-22T20:36:20.506Z,24.45
2023-04-22T20:38:51.152Z,21.02
2023-04-22T20:41:19.038Z,22.00
2023-04-22T20:43:46.721Z,21.67
2023-04-22T20:46:13.719Z,22.67
2023-04-22T20:48:41.378Z,21.30
2023-04-22T20:51:08.639Z,22.30
2023-04-22T20:53:35.730Z,22.40
2023-04-22T20:56:03.379Z,22.85
2023-04-22T20:58:30.412Z,24.83
2023-04-22T21:00:57.802Z,24.08
2023-04-22T21:03:27.570Z,24.65
2023-04-22T21:05:55.420Z,25.98
2023-04-22T21:08:25.630Z,23.90
2023-04-22T21:10:55.892Z,21.70
2023-04-22T21:13:23.858Z,24.02
2023-04-22T21:15:59.329Z,24.17
2023-04-22T21:18:29.166Z,23.25
2023-04-22T21:20:57.685Z,20.70
2023-04-22T21:23:25.690Z,23.52
2023-04-22T21:25:56.073Z,24.85
2023-04-22T21:28:23.603Z,22.17
2023-04-22T21:30:51.203Z,22.55
2023-04-22T21:33:18.125Z,20.02
2023-04-22T21:35:45.076Z,21.20
2023-04-22T21:38:12.224Z,20.15
2023-04-22T21:40:39.504Z,17.70
2023-04-22T21:43:06.356Z,18.52
2023-04-22T21:45:33.386Z,21.08
2023-04-22T21:48:00.603Z,21.13
2023-04-22T21:50:30.356Z,19.13
2023-04-22T21:52:59.067Z,20.70
2023-04-22T21:55:26.071Z,21.63
2023-04-22T21:57:53.000Z,20.95
2023-04-22T22:00:19.887Z,21.38
2023-04-22T22:02:48.908Z,20.27
2023-04-22T22:05:16.462Z,20.98
2023-04-22T22:07:45.227Z,20.45
2023-04-22T22:10:19.396Z,23.63
2023-04-22T22:12:47.655Z,20.67
2023-04-22T22:15:16.614Z,21.92
2023-04-22T22:17:45.081Z,24.10
2023-04-22T22:20:17.090Z,22.65
2023-04-22T22:22:44.856Z,20.50
2023-04-22T22:25:16.211Z,24.80
2023-04-22T22:27:49.458Z,22.58
2023-04-22T22:30:18.910Z,24.08
2023-04-22T22:32:46.121Z,26.88
2023-04-22T22:35:13.503Z,23.95
2023-04-22T22:37:41.272Z,25.73
2023-04-22T22:40:09.202Z,23.60
2023-04-22T22:42:36.426Z,23.05
2023-04-22T22:45:05.333Z,25.00
2023-04-22T22:47:32.645Z,24.15
2023-04-22T22:49:59.673Z,28.10
2023-04-22T22:52:26.696Z,28.23
2023-04-22T22:54:53.698Z,26.83
2023-04-22T22:57:21.141Z,23.60
2023-04-22T22:59:47.998Z,26.65
2023-04-22T23:02:15.149Z,28.85
2023-04-22T23:04:42.744Z,29.33
2023-04-22T23:07:09.960Z,30.52
2023-04-22T23:09:37.041Z,29.65
2023-04-22T23:12:04.169Z,27.92
2023-04-22T23:14:31.110Z,28.38
2023-04-22T23:16:58.359Z,31.15
2023-04-22T23:19:26.234Z,27.55
2023-04-22T23:21:55.844Z,28.33
2023-04-22T23:24:23.465Z,26.92
2023-04-22T23:26:51.334Z,27.42
2023-04-22T23:29:19.749Z,28.35
2023-04-22T23:31:47.408Z,32.28
2023-04-22T23:34:17.014Z,31.25
2023-04-22T23:36:45.639Z,32.85
2023-04-22T23:39:12.923Z,30.08
2023-04-22T23:41:39.808Z,33.50
2023-04-22T23:44:06.842Z,28.95
2023-04-22T23:46:34.122Z,30.52
2023-04-22T23:49:01.738Z,32.13
2023-04-22T23:51:30.321Z,32.80
2023-04-22T23:53:57.216Z,33.15
2023-04-22T23:56:24.524Z,31.77
2023-04-22T23:58:52.117Z,33.88
